Time;durP1;ratioP1;P1;durP2;ratioP2;P2;SDS_P1;SDS_P2;PMS_P1;PMS_P2;Temp;Humidity;BMP_temperature;BMP_pressure;BME280_temperature;BME280_humidity;BME280_pressure;Samples;Min_cycle;Max_cycle;Signal;HPM_P1;HPM_P2
2022/02/01 00:00:43;;;;;;;3.83;1.40;;;;;;;;;;5051722;28;20804;-66
2022/02/01 00:03:13;;;;;;;1.80;1.10;;;;;;;;;;5052406;28;20449;-67
2022/02/01 00:05:46;;;;;;;1.43;1.13;;;;;;;;;;5051148;28;20453;-66
2022/02/01 00:08:19;;;;;;;6.27;1.83;;;;;;;;;;5051561;28;20481;-67
2022/02/01 00:10:57;;;;;;;1.63;1.53;;;;;;;;;;5051213;28;20450;-67
2022/02/01 00:13:35;;;;;;;2.33;1.67;;;;;;;;;;5044260;28;20481;-66
2022/02/01 00:35:36;;;;;;;1.97;1.20;;;;;;;;;;5051370;28;20426;-66
2022/02/01 00:38:13;;;;;;;1.90;1.03;;;;;;;;;;5051468;28;20566;-66
2022/02/01 00:40:40;;;;;;;1.70;1.10;;;;;;;;;;5046932;28;20546;-66
2022/02/01 00:43:09;;;;;;;2.17;1.33;;;;;;;;;;5051349;28;20545;-66
2022/02/01 00:45:36;;;;;;;2.27;1.33;;;;;;;;;;5050591;28;20520;-66
2022/02/01 00:48:03;;;;;;;2.10;1.03;;;;;;;;;;5051186;28;20538;-67
2022/02/01 00:50:30;;;;;;;2.90;1.60;;;;;;;;;;5050200;28;20573;-67
2022/02/01 00:52:57;;;;;;;1.60;1.07;;;;;;;;;;5050532;28;20446;-66
2022/02/01 00:55:25;;;;;;;5.00;1.20;;;;;;;;;;5042855;28;20478;-67
2022/02/01 00:57:52;;;;;;;3.10;1.53;;;;;;;;;;5050175;28;20569;-66
2022/02/01 01:00:20;;;;;;;5.70;1.07;;;;;;;;;;5050817;28;20449;-67
2022/02/01 01:02:47;;;;;;;1.20;0.93;;;;;;;;;;5050210;28;20550;-65
2022/02/01 01:05:14;;;;;;;1.33;1.10;;;;;;;;;;5050769;28;21152;-66
2022/02/01 01:07:42;;;;;;;5.00;1.70;;;;;;;;;;5049319;28;20506;-65
2022/02/01 01:10:11;;;;;;;6.83;1.53;;;;;;;;;;5051362;28;20474;-66
2022/02/01 01:12:47;;;;;;;1.97;0.90;;;;;;;;;;5050454;28;20451;-65
2022/02/01 01:15:19;;;;;;;1.50;1.40;;;;;;;;;;5051189;28;20453;-66
2022/02/01 01:45:21;;;;;;;4.50;1.70;;;;;;;;;;5048257;28;20792;-66
2022/02/01 01:53:21;;;;;;;4.10;2.07;;;;;;;;;;5046131;28;20440;-66
2022/02/01 01:55:49;;;;;;;5.00;1.47;;;;;;;;;;5049124;28;20454;-66
2022/02/01 01:58:17;;;;;;;3.33;1.70;;;;;;;;;;5050730;28;21002;-66
2022/02/01 02:03:35;;;;;;;2.00;1.13;;;;;;;;;;5036152;28;20422;-66
2022/02/01 02:06:04;;;;;;;7.70;1.90;;;;;;;;;;5050225;28;20450;-66
2022/02/01 02:08:31;;;;;;;4.90;1.70;;;;;;;;;;5049357;28;20494;-66
2022/02/01 02:11:03;;;;;;;4.23;1.63;;;;;;;;;;5050457;28;20549;-67
2022/02/01 02:16:15;;;;;;;7.40;1.60;;;;;;;;;;5049345;28;20557;-67
2022/02/01 02:18:42;;;;;;;5.37;1.63;;;;;;;;;;5053172;28;20463;-66
2022/02/01 02:21:11;;;;;;;5.13;1.77;;;;;;;;;;5053430;28;20454;-67
2022/02/01 02:23:38;;;;;;;4.03;1.57;;;;;;;;;;5053187;28;20810;-67
2022/02/01 02:26:07;;;;;;;4.60;1.60;;;;;;;;;;5053752;28;20544;-66
2022/02/01 02:28:34;;;;;;;2.93;1.57;;;;;;;;;;5053245;28;20786;-67
2022/02/01 02:31:02;;;;;;;6.83;1.87;;;;;;;;;;5053824;28;20865;-66
2022/02/01 02:33:29;;;;;;;2.10;1.10;;;;;;;;;;5052818;28;20450;-66
2022/02/01 02:36:01;;;;;;;7.97;1.90;;;;;;;;;;5045970;28;21115;-66
2022/02/01 02:38:35;;;;;;;3.60;1.60;;;;;;;;;;5053113;28;20867;-66
2022/02/01 02:46:32;;;;;;;3.13;2.00;;;;;;;;;;5052958;28;20960;-66
2022/02/01 02:48:59;;;;;;;5.87;1.83;;;;;;;;;;5054155;28;20453;-67
2022/02/01 02:51:27;;;;;;;4.23;1.97;;;;;;;;;;5053339;28;20454;-66
2022/02/01 02:53:55;;;;;;;3.30;1.57;;;;;;;;;;5053043;28;20453;-66
2022/02/01 02:56:22;;;;;;;9.97;2.07;;;;;;;;;;5052834;28;20953;-66
2022/02/01 02:58:52;;;;;;;5.60;1.83;;;;;;;;;;5052601;28;20443;-66
2022/02/01 03:01:19;;;;;;;6.87;2.03;;;;;;;;;;5053022;28;20816;-66
2022/02/01 03:03:46;;;;;;;5.37;2.43;;;;;;;;;;5052008;28;20442;-66
2022/02/01 03:06:13;;;;;;;3.70;1.70;;;;;;;;;;5039580;28;20521;-67
2022/02/01 03:08:40;;;;;;;3.70;1.50;;;;;;;;;;5051943;28;21009;-67
2022/02/01 03:11:12;;;;;;;8.90;3.57;;;;;;;;;;5053286;28;20533;-67
2022/02/01 03:13:43;;;;;;;4.83;1.80;;;;;;;;;;5051783;28;20535;-66
2022/02/01 03:16:24;;;;;;;10.40;2.77;;;;;;;;;;5053025;28;20461;-67
2022/02/01 03:21:36;;;;;;;6.20;2.20;;;;;;;;;;5051384;28;20456;-66
2022/02/01 03:24:04;;;;;;;6.33;1.80;;;;;;;;;;5051360;28;20452;-66
2022/02/01 03:26:32;;;;;;;5.30;2.60;;;;;;;;;;5051415;28;20556;-66
2022/02/01 03:29:00;;;;;;;8.03;1.67;;;;;;;;;;5052884;28;20447;-67
2022/02/01 03:31:27;;;;;;;7.50;1.90;;;;;;;;;;5052131;28;20446;-66
2022/02/01 03:33:54;;;;;;;5.53;1.80;;;;;;;;;;5052646;28;20453;-67
2022/02/01 03:36:21;;;;;;;8.47;2.20;;;;;;;;;;5051287;28;20449;-66
2022/02/01 03:38:48;;;;;;;11.70;3.10;;;;;;;;;;5051727;28;20576;-66
2022/02/01 03:41:15;;;;;;;6.97;2.20;;;;;;;;;;5053051;28;20536;-67
2022/02/01 03:43:44;;;;;;;7.40;1.60;;;;;;;;;;5052034;28;20538;-67
2022/02/01 03:46:11;;;;;;;8.30;2.07;;;;;;;;;;5052347;28;20461;-67
2022/02/01 03:48:38;;;;;;;7.90;2.07;;;;;;;;;;5052071;28;20537;-66
2022/02/01 03:51:05;;;;;;;12.70;2.73;;;;;;;;;;5051823;28;20442;-67
2022/02/01 03:53:32;;;;;;;7.77;1.90;;;;;;;;;;5051239;28;20530;-66
2022/02/01 03:55:59;;;;;;;7.27;1.97;;;;;;;;;;5051753;28;20538;-66
2022/02/01 03:58:27;;;;;;;10.23;1.80;;;;;;;;;;5051986;28;20477;-66
2022/02/01 04:00:55;;;;;;;7.90;2.27;;;;;;;;;;5052260;28;20446;-67
2022/02/01 04:03:22;;;;;;;10.63;3.07;;;;;;;;;;5052370;28;20452;-67
2022/02/01 04:05:49;;;;;;;8.27;1.87;;;;;;;;;;5048485;28;20507;-67
2022/02/01 04:08:18;;;;;;;3.50;1.50;;;;;;;;;;5052360;28;20482;-67
2022/02/01 04:10:48;;;;;;;4.00;1.53;;;;;;;;;;5051196;28;20935;-66
2022/02/01 04:13:15;;;;;;;8.10;2.07;;;;;;;;;;5051590;28;20962;-66
2022/02/01 04:15:43;;;;;;;7.90;2.53;;;;;;;;;;5050797;28;20868;-66
2022/02/01 04:18:11;;;;;;;11.67;2.43;;;;;;;;;;5052634;28;20521;-66
2022/02/01 04:20:39;;;;;;;6.17;1.73;;;;;;;;;;5051056;28;21020;-66
2022/02/01 04:23:06;;;;;;;6.90;2.10;;;;;;;;;;5047977;28;20484;-66
2022/02/01 04:25:33;;;;;;;4.20;2.23;;;;;;;;;;5050562;28;20954;-66
2022/02/01 04:28:01;;;;;;;7.40;2.17;;;;;;;;;;5052254;28;20460;-67
2022/02/01 04:30:28;;;;;;;7.10;1.80;;;;;;;;;;5050734;28;20822;-66
2022/02/01 04:32:56;;;;;;;5.63;1.97;;;;;;;;;;5051549;28;20935;-67
2022/02/01 04:35:25;;;;;;;9.67;2.33;;;;;;;;;;5050615;28;20536;-67
2022/02/01 04:37:54;;;;;;;9.30;2.27;;;;;;;;;;5051231;28;20498;-67
2022/02/01 04:40:22;;;;;;;5.60;1.93;;;;;;;;;;5051333;28;20946;-67
2022/02/01 04:42:49;;;;;;;9.97;2.70;;;;;;;;;;5049598;28;20941;-67
2022/02/01 04:45:19;;;;;;;7.57;2.40;;;;;;;;;;5051032;28;20445;-68
2022/02/01 04:47:47;;;;;;;3.00;1.77;;;;;;;;;;5050599;28;21118;-68
2022/02/01 04:50:16;;;;;;;8.47;1.53;;;;;;;;;;5051587;28;20481;-66
2022/02/01 04:52:46;;;;;;;3.43;1.53;;;;;;;;;;5050607;28;20454;-67
2022/02/01 04:55:13;;;;;;;4.07;1.60;;;;;;;;;;5051007;28;20525;-66
2022/02/01 04:57:50;;;;;;;15.37;2.87;;;;;;;;;;5050390;28;20994;-68
2022/02/01 05:00:18;;;;;;;5.90;1.70;;;;;;;;;;5051474;28;20449;-71
2022/02/01 05:02:45;;;;;;;8.67;1.90;;;;;;;;;;5050933;28;20449;-68
2022/02/01 05:05:12;;;;;;;10.93;3.60;;;;;;;;;;5050665;28;20482;-68
2022/02/01 05:07:39;;;;;;;11.90;2.30;;;;;;;;;;5049833;28;20517;-67
2022/02/01 05:10:08;;;;;;;7.17;2.00;;;;;;;;;;5051563;28;20449;-68
2022/02/01 05:12:37;;;;;;;6.33;1.93;;;;;;;;;;5053865;28;20531;-68
2022/02/01 05:15:07;;;;;;;4.33;1.70;;;;;;;;;;5060605;28;20457;-67
2022/02/01 05:17:38;;;;;;;5.30;1.80;;;;;;;;;;5050631;28;20466;-68
2022/02/01 05:20:18;;;;;;;8.53;1.20;;;;;;;;;;5057562;28;20526;-68
2022/02/01 05:22:46;;;;;;;9.23;3.27;;;;;;;;;;5050469;28;20562;-67
2022/02/01 05:25:15;;;;;;;9.50;2.10;;;;;;;;;;5049662;28;21000;-67
2022/02/01 05:27:42;;;;;;;10.03;2.80;;;;;;;;;;5040432;28;20465;-68
2022/02/01 05:30:10;;;;;;;8.87;2.60;;;;;;;;;;5050732;28;20458;-67
2022/02/01 05:32:38;;;;;;;2.80;1.67;;;;;;;;;;5050089;28;20449;-67
2022/02/01 05:35:05;;;;;;;8.17;2.30;;;;;;;;;;5050420;28;20447;-66
2022/02/01 05:37:32;;;;;;;18.43;2.60;;;;;;;;;;5049903;28;20477;-67
2022/02/01 05:40:00;;;;;;;6.70;2.13;;;;;;;;;;5050473;28;20462;-69
2022/02/01 05:42:40;;;;;;;2.30;1.57;;;;;;;;;;5049382;28;20438;-67
2022/02/01 05:45:07;;;;;;;15.33;2.80;;;;;;;;;;5050603;28;21042;-68
2022/02/01 05:47:34;;;;;;;9.60;2.40;;;;;;;;;;5049619;28;20482;-67
2022/02/01 05:50:01;;;;;;;14.53;2.83;;;;;;;;;;5051086;28;20450;-68
2022/02/01 05:52:29;;;;;;;8.13;2.10;;;;;;;;;;5049877;28;20475;-68
2022/02/01 05:54:56;;;;;;;5.60;1.73;;;;;;;;;;5051089;28;20819;-68
2022/02/01 05:57:25;;;;;;;5.90;1.80;;;;;;;;;;5050942;28;20537;-69
2022/02/01 05:59:54;;;;;;;11.47;2.20;;;;;;;;;;5050384;28;20458;-68
2022/02/01 06:02:21;;;;;;;7.57;1.70;;;;;;;;;;5049912;28;20464;-68
2022/02/01 06:04:48;;;;;;;5.50;1.80;;;;;;;;;;5049898;28;20454;-68
2022/02/01 06:07:16;;;;;;;9.97;2.43;;;;;;;;;;5050150;28;20504;-68
2022/02/01 06:09:43;;;;;;;11.00;2.20;;;;;;;;;;5049795;28;20514;-68
2022/02/01 06:12:10;;;;;;;6.97;2.00;;;;;;;;;;5050088;28;20795;-68
2022/02/01 06:14:37;;;;;;;11.93;3.07;;;;;;;;;;5049948;28;20533;-68
2022/02/01 06:17:06;;;;;;;14.03;2.67;;;;;;;;;;5050462;28;20489;-68
2022/02/01 06:19:34;;;;;;;2.27;1.53;;;;;;;;;;5049368;28;20478;-68
2022/02/01 06:22:02;;;;;;;8.00;1.90;;;;;;;;;;5049584;28;20811;-69
2022/02/01 06:24:30;;;;;;;6.50;2.50;;;;;;;;;;5049535;28;20442;-67
2022/02/01 06:26:57;;;;;;;4.53;2.13;;;;;;;;;;5050388;28;20537;-68
2022/02/01 06:29:25;;;;;;;8.47;2.37;;;;;;;;;;5050614;28;20497;-69
2022/02/01 06:31:52;;;;;;;5.90;1.83;;;;;;;;;;5049137;28;20442;-69
2022/02/01 06:34:20;;;;;;;17.23;2.27;;;;;;;;;;5050278;28;20454;-69
2022/02/01 06:36:47;;;;;;;7.77;2.40;;;;;;;;;;5049886;28;20446;-69
2022/02/01 06:39:14;;;;;;;8.80;2.53;;;;;;;;;;5050268;28;20493;-68
2022/02/01 06:41:42;;;;;;;9.73;2.13;;;;;;;;;;5049497;28;20460;-68
2022/02/01 06:44:09;;;;;;;8.43;2.53;;;;;;;;;;5050173;28;20941;-69
2022/02/01 06:46:36;;;;;;;9.07;2.77;;;;;;;;;;5049179;28;20458;-68
2022/02/01 06:49:05;;;;;;;5.43;2.10;;;;;;;;;;5050177;28;20454;-69
2022/02/01 06:51:33;;;;;;;12.80;2.50;;;;;;;;;;5048416;28;20456;-68
2022/02/01 06:54:01;;;;;;;8.30;1.77;;;;;;;;;;5050093;28;20456;-69
2022/02/01 06:56:33;;;;;;;10.13;2.60;;;;;;;;;;5036648;28;21029;-67
2022/02/01 06:59:01;;;;;;;4.60;1.83;;;;;;;;;;5053009;28;20628;-69
2022/02/01 07:01:28;;;;;;;8.17;1.90;;;;;;;;;;5052367;28;20480;-67
2022/02/01 07:03:56;;;;;;;6.00;3.07;;;;;;;;;;5053274;28;20448;-69
2022/02/01 07:06:23;;;;;;;10.37;1.83;;;;;;;;;;5053426;28;20541;-69
2022/02/01 07:08:52;;;;;;;4.50;1.60;;;;;;;;;;5052683;28;20902;-69
2022/02/01 07:11:21;;;;;;;11.23;2.27;;;;;;;;;;5052738;28;20484;-69
2022/02/01 07:13:49;;;;;;;10.00;2.10;;;;;;;;;;5052988;28;20482;-69
2022/02/01 07:16:17;;;;;;;5.60;1.83;;;;;;;;;;5053495;28;20454;-69
2022/02/01 07:18:44;;;;;;;9.33;2.60;;;;;;;;;;5053014;28;20573;-68
2022/02/01 07:21:11;;;;;;;5.93;2.00;;;;;;;;;;5053299;28;20500;-67
2022/02/01 07:23:40;;;;;;;9.97;2.37;;;;;;;;;;5053051;28;20450;-69
2022/02/01 07:26:08;;;;;;;8.80;2.10;;;;;;;;;;5053213;28;20454;-69
2022/02/01 07:28:36;;;;;;;12.53;2.37;;;;;;;;;;5052285;28;20442;-69
2022/02/01 07:31:04;;;;;;;2.53;1.73;;;;;;;;;;5052351;28;20549;-70
2022/02/01 07:33:31;;;;;;;3.77;1.70;;;;;;;;;;5052398;28;20450;-69
2022/02/01 07:35:59;;;;;;;5.17;2.03;;;;;;;;;;5052818;28;20935;-69
2022/02/01 07:38:26;;;;;;;5.70;2.33;;;;;;;;;;5052673;28;20572;-68
2022/02/01 07:40:54;;;;;;;3.63;1.80;;;;;;;;;;5052404;28;20465;-69
2022/02/01 07:43:24;;;;;;;7.60;2.40;;;;;;;;;;5052763;28;20478;-69
2022/02/01 07:45:52;;;;;;;6.97;1.83;;;;;;;;;;5052570;28;20446;-70
2022/02/01 07:48:19;;;;;;;4.47;2.10;;;;;;;;;;5052774;28;20453;-70
2022/02/01 07:50:46;;;;;;;4.30;1.90;;;;;;;;;;5051291;28;20460;-69
2022/02/01 07:53:13;;;;;;;7.20;2.37;;;;;;;;;;5052499;28;20450;-70
2022/02/01 07:55:41;;;;;;;5.00;1.60;;;;;;;;;;5052111;28;20446;-69
2022/02/01 07:58:08;;;;;;;17.23;2.00;;;;;;;;;;5052887;28;20478;-70
2022/02/01 08:00:37;;;;;;;4.00;1.70;;;;;;;;;;5051734;28;20446;-70
2022/02/01 08:03:05;;;;;;;6.00;1.93;;;;;;;;;;5057408;28;20478;-70
2022/02/01 08:05:33;;;;;;;9.23;2.57;;;;;;;;;;5061020;28;20478;-70
2022/02/01 08:08:02;;;;;;;6.63;3.07;;;;;;;;;;5058427;28;20484;-70
2022/02/01 08:10:37;;;;;;;11.27;2.40;;;;;;;;;;5052222;28;20830;-68
2022/02/01 08:18:47;;;;;;;6.63;1.60;;;;;;;;;;5051450;28;20469;-70
2022/02/01 08:21:23;;;;;;;9.20;2.70;;;;;;;;;;5051618;28;20451;-70
2022/02/01 08:23:50;;;;;;;7.80;2.03;;;;;;;;;;5051661;28;20473;-70
2022/02/01 08:26:17;;;;;;;4.20;1.90;;;;;;;;;;5052291;28;20473;-71
2022/02/01 08:28:45;;;;;;;6.00;1.70;;;;;;;;;;5051387;28;20480;-70
2022/02/01 08:31:13;;;;;;;6.50;3.00;;;;;;;;;;5051320;28;20450;-70
2022/02/01 08:33:42;;;;;;;5.33;2.00;;;;;;;;;;5050813;28;20541;-71
2022/02/01 08:36:09;;;;;;;7.63;2.00;;;;;;;;;;5052089;28;20457;-71
2022/02/01 08:38:36;;;;;;;8.20;1.83;;;;;;;;;;5037755;28;20907;-71
2022/02/01 08:41:03;;;;;;;6.17;1.60;;;;;;;;;;5051749;28;20460;-71
2022/02/01 08:43:31;;;;;;;2.40;1.50;;;;;;;;;;5051164;28;20930;-71
2022/02/01 08:45:58;;;;;;;3.63;2.10;;;;;;;;;;5052093;28;21145;-71
2022/02/01 08:48:27;;;;;;;8.90;1.87;;;;;;;;;;5052057;28;20541;-68
2022/02/01 08:50:56;;;;;;;8.57;2.00;;;;;;;;;;5051130;28;20464;-71
2022/02/01 08:53:25;;;;;;;6.53;1.60;;;;;;;;;;5051118;28;20952;-70
2022/02/01 08:58:36;;;;;;;5.40;2.13;;;;;;;;;;5050575;28;20473;-71
2022/02/01 09:01:03;;;;;;;5.63;1.97;;;;;;;;;;5050788;28;20550;-71
2022/02/01 09:03:32;;;;;;;8.27;1.77;;;;;;;;;;5050622;28;20478;-71
2022/02/01 09:05:59;;;;;;;6.10;1.83;;;;;;;;;;5051059;28;20450;-71
2022/02/01 09:08:27;;;;;;;4.60;2.83;;;;;;;;;;5050519;28;20523;-68
2022/02/01 09:10:54;;;;;;;6.17;1.60;;;;;;;;;;5050872;28;20889;-71
2022/02/01 09:13:22;;;;;;;6.30;1.97;;;;;;;;;;5051015;28;20454;-71
2022/02/01 09:15:49;;;;;;;3.40;1.83;;;;;;;;;;5050308;28;20544;-71
2022/02/01 09:18:16;;;;;;;5.87;2.20;;;;;;;;;;5051052;28;20459;-71
2022/02/01 09:20:45;;;;;;;9.77;1.70;;;;;;;;;;5049852;28;20450;-72
2022/02/01 09:23:13;;;;;;;6.00;2.17;;;;;;;;;;5050695;28;20511;-72
2022/02/01 09:25:40;;;;;;;5.23;1.73;;;;;;;;;;5050940;28;20454;-71
2022/02/01 09:28:07;;;;;;;5.53;2.10;;;;;;;;;;5051211;28;20533;-72
2022/02/01 09:30:34;;;;;;;7.50;1.90;;;;;;;;;;5050302;28;20489;-72
2022/02/01 09:33:02;;;;;;;8.43;1.90;;;;;;;;;;5051145;28;20457;-70
2022/02/01 09:35:29;;;;;;;5.80;1.60;;;;;;;;;;5050053;28;20489;-69
2022/02/01 09:37:57;;;;;;;4.63;1.70;;;;;;;;;;5050447;28;20462;-71
2022/02/01 09:40:25;;;;;;;2.90;1.90;;;;;;;;;;5050099;28;20585;-72
2022/02/01 09:42:52;;;;;;;6.70;1.67;;;;;;;;;;5050353;28;20543;-71
2022/02/01 09:45:19;;;;;;;3.97;2.10;;;;;;;;;;5050826;28;20450;-71
2022/02/01 09:47:47;;;;;;;4.90;2.00;;;;;;;;;;5049930;28;21121;-71
2022/02/01 09:50:15;;;;;;;3.63;1.30;;;;;;;;;;5050224;28;20458;-72
2022/02/01 09:52:42;;;;;;;7.73;1.70;;;;;;;;;;5049768;28;20446;-71
2022/02/01 09:55:14;;;;;;;7.70;1.43;;;;;;;;;;5050963;28;20446;-72
2022/02/01 09:57:44;;;;;;;3.47;1.43;;;;;;;;;;5049865;28;22072;-70
2022/02/01 10:00:15;;;;;;;1.70;1.37;;;;;;;;;;5050023;28;20480;-70
2022/02/01 10:02:45;;;;;;;5.17;1.77;;;;;;;;;;5050075;28;20442;-71
2022/02/01 10:05:13;;;;;;;4.97;1.83;;;;;;;;;;5050407;28;20512;-71
2022/02/01 10:07:47;;;;;;;5.20;1.43;;;;;;;;;;5049977;28;20536;-72
2022/02/01 10:10:15;;;;;;;2.73;1.30;;;;;;;;;;5050727;28;20461;-71
2022/02/01 10:12:43;;;;;;;3.70;2.20;;;;;;;;;;5050057;28;20533;-71
2022/02/01 10:15:24;;;;;;;5.10;1.50;;;;;;;;;;5050537;28;20450;-71
2022/02/01 10:17:57;;;;;;;10.60;2.10;;;;;;;;;;5050900;28;20453;-72
2022/02/01 10:20:33;;;;;;;6.37;2.10;;;;;;;;;;5050199;28;20481;-72
2022/02/01 10:23:00;;;;;;;7.03;1.70;;;;;;;;;;5050408;28;20905;-71
2022/02/01 10:25:30;;;;;;;3.43;1.40;;;;;;;;;;5049980;28;20504;-69
2022/02/01 10:27:58;;;;;;;3.70;1.80;;;;;;;;;;5050144;28;20445;-71
2022/02/01 10:30:31;;;;;;;3.97;1.37;;;;;;;;;;5050018;28;20544;-70
2022/02/01 10:33:20;;;;;;;6.10;1.67;;;;;;;;;;5052095;28;20528;-71
2022/02/01 10:35:58;;;;;;;3.33;2.33;;;;;;;;;;5053551;28;20438;-71
2022/02/01 10:38:25;;;;;;;3.80;1.13;;;;;;;;;;5053988;28;20926;-72
2022/02/01 10:40:54;;;;;;;2.47;1.27;;;;;;;;;;5053663;28;20509;-71
2022/02/01 10:43:23;;;;;;;4.50;1.53;;;;;;;;;;5053519;28;20533;-72
2022/02/01 10:45:51;;;;;;;3.17;0.87;;;;;;;;;;5053257;28;20478;-71
2022/02/01 10:48:20;;;;;;;3.07;1.20;;;;;;;;;;5054916;28;20451;-72
2022/02/01 10:50:47;;;;;;;3.60;1.53;;;;;;;;;;5058845;28;20449;-71
2022/02/01 10:53:18;;;;;;;3.80;1.20;;;;;;;;;;5060401;28;20484;-71
2022/02/01 10:55:45;;;;;;;5.57;3.00;;;;;;;;;;5057221;28;20714;-71
2022/02/01 10:58:15;;;;;;;8.37;1.30;;;;;;;;;;5054758;28;20538;-72
2022/02/01 11:00:43;;;;;;;2.40;1.30;;;;;;;;;;5053156;28;20481;-71
2022/02/01 11:03:12;;;;;;;4.43;1.53;;;;;;;;;;5053666;28;20449;-72
2022/02/01 11:05:42;;;;;;;8.57;1.67;;;;;;;;;;5053012;28;20446;-72
2022/02/01 11:08:10;;;;;;;3.70;1.50;;;;;;;;;;5053514;28;20565;-73
2022/02/01 11:10:38;;;;;;;4.13;1.43;;;;;;;;;;5052402;28;20544;-72
2022/02/01 11:13:06;;;;;;;1.93;1.30;;;;;;;;;;5053522;28;20442;-72
2022/02/01 11:15:35;;;;;;;3.83;1.23;;;;;;;;;;5052544;28;20508;-71
2022/02/01 11:18:09;;;;;;;2.87;1.30;;;;;;;;;;5053115;28;20541;-71
2022/02/01 11:20:37;;;;;;;3.27;1.23;;;;;;;;;;5052388;28;20931;-72
2022/02/01 11:23:05;;;;;;;3.73;1.30;;;;;;;;;;5053193;28;20794;-72
2022/02/01 11:25:43;;;;;;;4.47;1.60;;;;;;;;;;5052420;28;20449;-71
2022/02/01 11:28:14;;;;;;;2.07;0.70;;;;;;;;;;5053000;28;20938;-70
2022/02/01 11:30:45;;;;;;;1.50;0.67;;;;;;;;;;5052058;28;20451;-71
2022/02/01 11:33:13;;;;;;;4.63;2.10;;;;;;;;;;5053357;28;20802;-71
2022/02/01 11:35:40;;;;;;;3.07;1.60;;;;;;;;;;5053153;28;20481;-71
2022/02/01 11:38:08;;;;;;;3.90;1.70;;;;;;;;;;5052986;28;20466;-72
2022/02/01 11:40:37;;;;;;;3.67;1.17;;;;;;;;;;5052536;28;20508;-72
2022/02/01 11:43:07;;;;;;;11.20;1.93;;;;;;;;;;5053235;28;20472;-71
2022/02/01 11:45:35;;;;;;;5.47;1.73;;;;;;;;;;5051071;28;20449;-71
2022/02/01 11:48:16;;;;;;;2.83;1.50;;;;;;;;;;5052625;28;20533;-71
2022/02/01 11:50:47;;;;;;;3.60;1.23;;;;;;;;;;5051780;28;20453;-72
2022/02/01 11:53:20;;;;;;;1.60;1.13;;;;;;;;;;5038426;28;20463;-72
2022/02/01 11:55:48;;;;;;;5.73;1.77;;;;;;;;;;5051922;28;20488;-71
2022/02/01 11:58:15;;;;;;;2.40;1.40;;;;;;;;;;5052651;28;20545;-71
2022/02/01 12:00:43;;;;;;;3.67;1.47;;;;;;;;;;5050992;28;20482;-71
2022/02/01 12:03:20;;;;;;;6.90;1.60;;;;;;;;;;5052751;28;20446;-71
2022/02/01 12:05:53;;;;;;;2.60;1.23;;;;;;;;;;5051766;28;21074;-72
2022/02/01 12:08:21;;;;;;;3.37;1.30;;;;;;;;;;5051732;28;20580;-71
2022/02/01 12:10:48;;;;;;;3.27;1.20;;;;;;;;;;5050921;28;20446;-71
2022/02/01 12:13:17;;;;;;;4.67;1.50;;;;;;;;;;5052183;28;20452;-71
2022/02/01 12:15:45;;;;;;;4.20;1.20;;;;;;;;;;5051630;28;20442;-71
2022/02/01 12:18:25;;;;;;;2.87;1.20;;;;;;;;;;5052689;28;20474;-71
2022/02/01 12:20:59;;;;;;;1.40;1.03;;;;;;;;;;5051986;28;21057;-72
2022/02/01 12:23:27;;;;;;;3.10;1.30;;;;;;;;;;5051568;28;20521;-71
2022/02/01 12:25:54;;;;;;;5.43;1.17;;;;;;;;;;5052600;28;20450;-71
2022/02/01 12:28:23;;;;;;;1.90;1.20;;;;;;;;;;5052187;28;20812;-71
2022/02/01 12:30:51;;;;;;;6.40;1.97;;;;;;;;;;5050877;28;20457;-72
2022/02/01 12:33:23;;;;;;;2.17;0.80;;;;;;;;;;5051995;28;20666;-71
2022/02/01 12:35:53;;;;;;;3.00;1.23;;;;;;;;;;5051249;28;20505;-71
2022/02/01 12:38:23;;;;;;;3.40;1.20;;;;;;;;;;5051242;28;20465;-71
2022/02/01 12:40:55;;;;;;;2.20;1.20;;;;;;;;;;5050390;28;20543;-71
2022/02/01 12:43:26;;;;;;;7.47;1.33;;;;;;;;;;5051747;28;20458;-71
2022/02/01 12:46:03;;;;;;;3.00;1.67;;;;;;;;;;5051567;28;20481;-71
2022/02/01 12:48:32;;;;;;;5.13;1.60;;;;;;;;;;5050964;28;20466;-71
2022/02/01 12:51:01;;;;;;;3.50;1.60;;;;;;;;;;5051190;28;20498;-72
2022/02/01 12:53:29;;;;;;;2.30;0.70;;;;;;;;;;5050890;28;20545;-71
2022/02/01 12:55:57;;;;;;;3.20;0.90;;;;;;;;;;5051260;28;20449;-70
2022/02/01 12:58:24;;;;;;;2.80;1.10;;;;;;;;;;5051371;28;20478;-71
2022/02/01 13:00:52;;;;;;;2.73;1.00;;;;;;;;;;5050892;28;20943;-70
2022/02/01 13:03:19;;;;;;;3.13;1.13;;;;;;;;;;5051505;28;20474;-71
2022/02/01 13:05:47;;;;;;;2.70;1.00;;;;;;;;;;5051056;28;20442;-70
2022/02/01 13:14:25;;;;;;;3.17;1.33;;;;;;;;;;5050197;28;20472;-71
2022/02/01 13:16:59;;;;;;;1.53;1.20;;;;;;;;;;5050046;28;21250;-70
2022/02/01 13:22:19;;;;;;;4.63;1.23;;;;;;;;;;5050819;28;20516;-70
2022/02/01 13:24:46;;;;;;;2.10;1.20;;;;;;;;;;5050289;28;20481;-70
2022/02/01 13:27:20;;;;;;;1.67;1.03;;;;;;;;;;5050829;28;20525;-70
2022/02/01 13:29:58;;;;;;;1.67;1.10;;;;;;;;;;5049676;28;20451;-70
2022/02/01 13:32:31;;;;;;;2.70;1.07;;;;;;;;;;5051092;28;20446;-71
2022/02/01 13:35:01;;;;;;;1.77;0.80;;;;;;;;;;5050806;28;20429;-70
2022/02/01 13:37:29;;;;;;;1.77;1.00;;;;;;;;;;5050203;28;20450;-67
2022/02/01 13:39:56;;;;;;;1.70;1.13;;;;;;;;;;5050433;28;20492;-70
2022/02/01 13:42:29;;;;;;;3.50;0.60;;;;;;;;;;5050917;28;20450;-71
2022/02/01 13:44:57;;;;;;;1.93;1.00;;;;;;;;;;5051194;28;20446;-70
2022/02/01 13:47:33;;;;;;;1.60;1.00;;;;;;;;;;5051228;28;20457;-70
2022/02/01 13:50:01;;;;;;;1.80;1.17;;;;;;;;;;5050727;28;20446;-70
2022/02/01 13:52:29;;;;;;;5.47;1.07;;;;;;;;;;5049866;28;21338;-70
2022/02/01 13:54:56;;;;;;;2.03;1.00;;;;;;;;;;5050768;28;20504;-70
2022/02/01 13:57:24;;;;;;;2.30;1.13;;;;;;;;;;5050245;28;20446;-70
2022/02/01 13:59:52;;;;;;;2.20;1.33;;;;;;;;;;5049690;28;20529;-70
2022/02/01 14:02:25;;;;;;;2.03;1.10;;;;;;;;;;5050548;28;20449;-70
2022/02/01 14:04:58;;;;;;;1.30;0.93;;;;;;;;;;5049873;28;20457;-70
2022/02/01 14:07:36;;;;;;;4.33;1.80;;;;;;;;;;5050693;28;20985;-70
2022/02/01 14:10:11;;;;;;;2.50;1.70;;;;;;;;;;5054008;28;20449;-70
2022/02/01 14:24:18;;;;;;;2.83;1.33;;;;;;;;;;5053127;28;20518;-70
2022/02/01 14:26:49;;;;;;;4.50;1.60;;;;;;;;;;5053623;28;20437;-69
2022/02/01 14:34:57;;;;;;;1.87;1.77;;;;;;;;;;5011632;28;20469;-70
2022/02/01 14:37:29;;;;;;;2.10;1.10;;;;;;;;;;5034713;28;20457;-70
2022/02/01 14:43:18;;;;;;;1.50;1.20;;;;;;;;;;5030342;28;20433;-70
2022/02/01 14:45:42;;;;;;;2.70;1.83;;;;;;;;;;5052762;28;20496;-69
2022/02/01 14:48:10;;;;;;;2.33;1.20;;;;;;;;;;5053961;28;20526;-70
2022/02/01 14:50:37;;;;;;;1.90;1.20;;;;;;;;;;5052909;28;20537;-70
2022/02/01 14:53:04;;;;;;;4.00;1.90;;;;;;;;;;5053497;28;20489;-70
2022/02/01 14:55:39;;;;;;;2.00;1.20;;;;;;;;;;5052980;28;20446;-69
2022/02/01 15:03:48;;;;;;;4.07;1.73;;;;;;;;;;5052782;28;20475;-69
2022/02/01 15:11:59;;;;;;;4.70;1.83;;;;;;;;;;5052786;28;20434;-70
2022/02/01 15:14:28;;;;;;;3.90;1.10;;;;;;;;;;5053223;28;20449;-69
2022/02/01 15:16:55;;;;;;;4.90;1.80;;;;;;;;;;5053304;28;20533;-70
2022/02/01 15:19:22;;;;;;;3.23;1.63;;;;;;;;;;5053236;28;20508;-70
2022/02/01 15:21:49;;;;;;;4.00;2.10;;;;;;;;;;5052382;28;20489;-70
2022/02/01 15:24:16;;;;;;;3.13;1.30;;;;;;;;;;5053171;28;20451;-69
2022/02/01 15:26:44;;;;;;;2.53;1.47;;;;;;;;;;5052417;28;20448;-70
2022/02/01 15:29:11;;;;;;;6.57;1.47;;;;;;;;;;5053154;28;20478;-69
2022/02/01 15:31:39;;;;;;;1.90;1.40;;;;;;;;;;5052231;28;20458;-71
2022/02/01 15:34:06;;;;;;;2.70;1.40;;;;;;;;;;5053341;28;20478;-70
2022/02/01 15:36:36;;;;;;;2.00;1.33;;;;;;;;;;5051866;28;20527;-70
2022/02/01 15:58:27;;;;;;;7.83;2.60;;;;;;;;;;5053193;28;20427;-70
2022/02/01 16:00:55;;;;;;;5.80;2.10;;;;;;;;;;5052481;28;20520;-70
2022/02/01 16:03:28;;;;;;;2.43;1.30;;;;;;;;;;5053171;28;20479;-70
2022/02/01 16:05:56;;;;;;;2.97;1.70;;;;;;;;;;5052295;28;20538;-70
2022/02/01 16:08:30;;;;;;;6.40;1.20;;;;;;;;;;5051835;28;20503;-70
2022/02/01 16:11:00;;;;;;;1.93;1.30;;;;;;;;;;5052008;28;20811;-70
2022/02/01 16:13:36;;;;;;;4.43;2.10;;;;;;;;;;5051896;28;20931;-68
2022/02/01 16:16:03;;;;;;;2.30;1.07;;;;;;;;;;5052451;28;20504;-70
2022/02/01 16:18:32;;;;;;;3.40;1.30;;;;;;;;;;5051235;28;20569;-70
2022/02/01 16:21:00;;;;;;;2.77;1.37;;;;;;;;;;5038851;28;20859;-70
2022/02/01 16:23:27;;;;;;;4.70;1.67;;;;;;;;;;5051534;28;20877;-68
2022/02/01 16:25:54;;;;;;;2.77;1.23;;;;;;;;;;5052421;28;20456;-70
2022/02/01 16:28:22;;;;;;;4.27;1.60;;;;;;;;;;5051717;28;20947;-70
2022/02/01 16:30:49;;;;;;;3.10;1.30;;;;;;;;;;5050349;28;20469;-73
2022/02/01 16:33:16;;;;;;;2.60;1.40;;;;;;;;;;5052017;28;20446;-70
2022/02/01 16:35:45;;;;;;;4.70;1.37;;;;;;;;;;5050980;28;20485;-70
2022/02/01 16:38:12;;;;;;;1.40;1.17;;;;;;;;;;5051419;28;20482;-70
2022/02/01 16:40:41;;;;;;;1.07;0.97;;;;;;;;;;5050907;28;20482;-70
2022/02/01 16:43:12;;;;;;;3.43;2.40;;;;;;;;;;5052179;28;20450;-70
2022/02/01 16:45:39;;;;;;;2.30;1.47;;;;;;;;;;5051510;28;20447;-70
2022/02/01 16:48:08;;;;;;;1.77;1.30;;;;;;;;;;5051890;28;20478;-70
2022/02/01 16:50:36;;;;;;;2.50;1.07;;;;;;;;;;5050736;28;20447;-70
2022/02/01 16:53:09;;;;;;;3.60;1.10;;;;;;;;;;5051347;28;20800;-70
2022/02/01 16:55:44;;;;;;;3.23;1.30;;;;;;;;;;5050722;28;20957;-71
2022/02/01 16:58:22;;;;;;;1.30;1.00;;;;;;;;;;5039545;28;20477;-70
2022/02/01 17:00:49;;;;;;;1.63;0.97;;;;;;;;;;5049942;28;20510;-71
2022/02/01 17:03:18;;;;;;;1.77;0.90;;;;;;;;;;5051401;28;20457;-71
2022/02/01 17:05:46;;;;;;;1.47;0.80;;;;;;;;;;5050523;28;20607;-71
2022/02/01 17:08:14;;;;;;;1.90;1.10;;;;;;;;;;5050954;28;20480;-70